createdAt,value
2019-04-06T00:01:12.707Z,28.47
2019-04-06T00:06:14.838Z,27.80
2019-04-06T00:11:16.887Z,27.77
2019-04-06T00:16:21.505Z,27.50
2019-04-06T00:21:26.753Z,31.03
2019-04-06T00:26:30.280Z,28.43
2019-04-06T00:31:52.277Z,27.90
2019-04-06T00:36:55.122Z,28.40
2019-04-06T00:41:59.231Z,29.87
2019-04-06T00:47:01.486Z,29.17
2019-04-06T00:52:04.954Z,32.37
2019-04-06T00:57:07.169Z,31.20
2019-04-06T01:02:09.468Z,29.67
2019-04-06T01:07:12.026Z,29.20
2019-04-06T01:12:17.253Z,40.93
2019-04-06T01:17:19.581Z,29.87
2019-04-06T01:22:21.742Z,29.87
2019-04-06T01:27:25.190Z,29.00
2019-04-06T01:32:27.286Z,28.07
2019-04-06T01:37:30.826Z,29.90
2019-04-06T01:42:35.707Z,30.00
2019-04-06T01:47:41.815Z,28.93
2019-04-06T01:52:43.899Z,29.23
2019-04-06T01:57:46.094Z,27.67
2019-04-06T02:02:50.341Z,31.50
2019-04-06T02:07:52.427Z,30.07
2019-04-06T02:12:54.575Z,30.80
2019-04-06T02:17:58.900Z,31.00
2019-04-06T02:23:03.709Z,29.87
2019-04-06T02:28:07.152Z,31.27
2019-04-06T02:33:25.047Z,30.40
2019-04-06T02:38:33.570Z,29.87
2019-04-06T02:43:38.434Z,29.67
2019-04-06T02:48:40.697Z,31.50
2019-04-06T02:53:45.568Z,30.47
2019-04-06T02:58:47.854Z,28.83
2019-04-06T03:03:52.250Z,31.03
2019-04-06T03:08:54.288Z,28.87
2019-04-06T03:13:56.979Z,29.30
2019-04-06T03:18:59.092Z,30.63
2019-04-06T03:24:02.997Z,30.97
2019-04-06T03:29:05.119Z,29.67
2019-04-06T03:34:07.474Z,27.20
2019-04-06T03:39:09.699Z,30.80
2019-04-06T03:44:11.853Z,31.40
2019-04-06T03:49:14.977Z,30.83
2019-04-06T03:54:17.037Z,30.73
2019-04-06T03:59:21.348Z,30.77
2019-04-06T04:04:25.417Z,30.87
2019-04-06T04:09:27.694Z,30.90
2019-04-06T04:14:32.439Z,29.97
2019-04-06T04:19:37.768Z,29.70
2019-04-06T04:24:40.994Z,30.97
2019-04-06T04:29:43.462Z,32.33
2019-04-06T04:34:45.503Z,30.77
2019-04-06T04:39:47.562Z,30.43
2019-04-06T04:44:49.686Z,31.30
2019-04-06T04:49:54.404Z,32.37
2019-04-06T04:54:56.471Z,30.07
2019-04-06T04:59:58.480Z,32.60
2019-04-06T05:05:03.044Z,31.90
2019-04-06T05:10:05.747Z,33.13
2019-04-06T05:15:12.137Z,33.93
2019-04-06T05:20:14.130Z,35.03
2019-04-06T05:25:16.301Z,34.13
2019-04-06T05:30:18.330Z,33.47
2019-04-06T05:35:20.650Z,33.20
2019-04-06T05:40:22.718Z,33.93
2019-04-06T05:45:27.355Z,34.67
2019-04-06T05:50:36.492Z,33.17
2019-04-06T05:55:38.574Z,34.10
2019-04-06T06:00:41.762Z,35.40
2019-04-06T06:05:46.832Z,36.20
2019-04-06T06:10:48.940Z,34.47
2019-04-06T06:15:50.931Z,33.73
2019-04-06T06:20:52.988Z,34.53
2019-04-06T06:25:56.135Z,35.20
2019-04-06T06:30:58.151Z,35.17
2019-04-06T06:36:03.231Z,35.40
2019-04-06T06:41:06.462Z,36.70
2019-04-06T06:46:08.447Z,37.23
2019-04-06T06:51:10.448Z,37.77
2019-04-06T06:56:12.541Z,36.97
2019-04-06T07:01:16.003Z,37.33
2019-04-06T07:06:22.797Z,37.27
2019-04-06T07:11:24.893Z,37.47
2019-04-06T07:16:27.151Z,37.17
2019-04-06T07:21:29.181Z,39.57
2019-04-06T07:26:31.737Z,37.83
2019-04-06T07:31:33.758Z,38.83
2019-04-06T07:36:39.561Z,39.43
2019-04-06T07:41:41.815Z,38.67
2019-04-06T07:46:44.377Z,38.37
2019-04-06T07:51:47.693Z,39.37
2019-04-06T07:56:52.287Z,38.63
2019-04-06T08:01:56.479Z,39.93
2019-04-06T08:07:00.497Z,39.57
2019-04-06T08:12:04.377Z,39.53
2019-04-06T08:17:06.483Z,38.93
2019-04-06T08:22:13.969Z,39.73
2019-04-06T08:27:16.963Z,40.60
2019-04-06T08:32:19.102Z,40.30
2019-04-06T08:37:21.372Z,41.93
2019-04-06T08:42:23.386Z,40.43
2019-04-06T08:47:25.575Z,38.37
2019-04-06T08:52:29.797Z,43.57
2019-04-06T08:57:31.841Z,42.67
2019-04-06T09:02:38.686Z,42.87
2019-04-06T09:07:41.230Z,42.67
2019-04-06T09:12:48.492Z,41.83
2019-04-06T09:17:50.805Z,42.53
2019-04-06T09:22:52.822Z,40.37
2019-04-06T09:27:54.943Z,43.53
2019-04-06T09:32:57.196Z,41.47
2019-04-06T09:37:59.819Z,39.67
2019-04-06T09:43:02.550Z,39.77
2019-04-06T09:48:24.562Z,41.97
2019-04-06T09:54:05.157Z,42.67
2019-04-06T09:59:15.517Z,40.50
2019-04-06T10:04:35.656Z,39.27
2019-04-06T10:10:06.307Z,39.10
2019-04-06T10:15:31.847Z,38.20
2019-04-06T10:20:52.158Z,37.43
2019-04-06T10:26:12.609Z,39.13
2019-04-06T10:31:46.561Z,39.30
2019-04-06T10:37:13.909Z,37.37
2019-04-06T10:42:36.201Z,37.50
2019-04-06T10:47:50.307Z,37.80
2019-04-06T10:53:24.014Z,37.20
2019-04-06T10:58:36.873Z,36.83
2019-04-06T11:04:04.415Z,37.20
2019-04-06T11:09:13.523Z,33.47
2019-04-06T11:14:41.326Z,35.33
2019-04-06T11:20:14.934Z,34.20
2019-04-06T11:25:33.256Z,34.47
2019-04-06T11:30:55.087Z,30.53
2019-04-06T11:36:13.467Z,30.23
2019-04-06T11:41:37.966Z,34.53
2019-04-06T11:46:48.243Z,29.07
2019-04-06T11:52:08.487Z,30.07
2019-04-06T11:57:44.964Z,29.50
2019-04-06T12:03:11.328Z,30.00
2019-04-06T12:08:47.639Z,30.57
2019-04-06T12:14:15.320Z,29.17
2019-04-06T12:19:36.948Z,32.03
2019-04-06T12:25:15.730Z,30.57
2019-04-06T12:30:37.316Z,26.70
2019-04-06T12:35:51.876Z,27.97
2019-04-06T12:41:16.263Z,27.63
2019-04-06T12:46:49.871Z,28.10
2019-04-06T12:52:11.526Z,26.93
2019-04-06T12:57:36.574Z,27.60
2019-04-06T13:02:49.474Z,27.10
2019-04-06T13:08:26.166Z,29.80
2019-04-06T13:13:38.744Z,30.17
2019-04-06T13:18:48.377Z,29.57
2019-04-06T13:24:25.325Z,29.20
2019-04-06T13:29:41.142Z,28.10
2019-04-06T13:35:01.386Z,26.40
2019-04-06T13:40:32.900Z,26.70
2019-04-06T13:45:51.280Z,29.13
2019-04-06T13:51:05.421Z,28.77
2019-04-06T13:56:28.150Z,29.07
2019-04-06T14:01:44.911Z,28.93
2019-04-06T14:07:18.794Z,31.27
2019-04-06T14:12:58.149Z,29.93
2019-04-06T14:18:25.871Z,33.20
2019-04-06T14:23:37.323Z,31.47
2019-04-06T14:28:54.415Z,30.13
2019-04-06T14:34:24.865Z,37.47
2019-04-06T14:39:45.147Z,35.40
2019-04-06T14:45:05.658Z,36.87
2019-04-06T14:50:42.080Z,36.57
2019-04-06T14:55:52.415Z,37.87
2019-04-06T15:01:13.190Z,39.40
2019-04-06T15:06:49.879Z,38.60
2019-04-06T15:12:03.750Z,40.67
2019-04-06T15:17:20.403Z,39.50
2019-04-06T15:22:45.172Z,37.50
2019-04-06T15:27:53.987Z,39.47
2019-04-06T15:33:18.191Z,40.23
2019-04-06T15:38:28.501Z,40.17
2019-04-06T15:43:49.087Z,40.70
2019-04-06T15:49:13.661Z,39.60
2019-04-06T15:54:31.343Z,42.97
2019-04-06T15:59:44.000Z,42.77
2019-04-06T16:05:08.735Z,43.53
2019-04-06T16:10:21.538Z,43.77
2019-04-06T16:15:48.026Z,44.17
2019-04-06T16:21:09.719Z,42.47
2019-04-06T16:26:19.833Z,46.27
2019-04-06T16:32:11.689Z,40.30
2019-04-06T16:37:32.291Z,37.33
2019-04-06T16:42:59.964Z,39.40
2019-04-06T16:48:18.540Z,38.80
2019-04-06T16:53:51.998Z,37.40
2019-04-06T16:59:09.801Z,37.53
2019-04-06T17:04:28.465Z,35.13
2019-04-06T17:09:50.084Z,34.50
2019-04-06T17:15:10.600Z,35.50
2019-04-06T17:20:31.806Z,34.40
2019-04-06T17:25:50.736Z,34.27
2019-04-06T17:31:12.366Z,35.03
2019-04-06T17:36:32.592Z,36.50
2019-04-06T17:47:23.137Z,36.97
2019-04-06T17:52:34.879Z,39.67
2019-04-06T17:57:43.517Z,42.37
2019-04-06T18:03:11.255Z,43.20
2019-04-06T18:08:45.547Z,44.57
2019-04-06T18:13:49.073Z,45.87
2019-04-06T18:18:52.933Z,47.50
2019-04-06T18:23:55.291Z,46.83
2019-04-06T18:28:58.034Z,46.83
2019-04-06T18:34:00.509Z,49.03
2019-04-06T18:39:07.238Z,50.53
2019-04-06T18:44:09.284Z,50.00
2019-04-06T18:49:13.518Z,49.67
2019-04-06T18:54:16.934Z,49.97
2019-04-06T18:59:19.457Z,50.43
2019-04-06T19:04:21.511Z,50.07
2019-04-06T19:09:24.656Z,51.07
2019-04-06T19:14:27.893Z,51.20
2019-04-06T19:19:35.194Z,50.60
2019-04-06T19:24:39.871Z,52.83
2019-04-06T19:29:44.748Z,52.87
2019-04-06T19:34:49.369Z,55.27
2019-04-06T19:39:51.408Z,53.20
2019-04-06T19:44:53.733Z,55.93
2019-04-06T19:49:55.803Z,56.10
2019-04-06T19:54:58.191Z,54.43
2019-04-06T20:00:00.239Z,54.97
2019-04-06T20:05:05.185Z,56.43
2019-04-06T20:10:08.982Z,56.40
2019-04-06T20:15:12.100Z,53.87
2019-04-06T20:20:18.671Z,57.27
2019-04-06T20:25:21.374Z,56.50
2019-04-06T20:30:23.910Z,58.00
2019-04-06T20:35:26.741Z,58.03
2019-04-06T20:40:31.749Z,58.23
2019-04-06T20:45:33.969Z,60.40
2019-04-06T20:50:38.646Z,57.23
2019-04-06T20:55:40.999Z,59.80
2019-04-06T21:00:43.102Z,61.50
2019-04-06T21:05:49.389Z,57.97
2019-04-06T21:10:52.126Z,64.03
2019-04-06T21:15:54.741Z,60.47
2019-04-06T21:20:56.769Z,59.20
2019-04-06T21:25:59.062Z,61.47
2019-04-06T21:31:02.309Z,60.83
2019-04-06T21:36:04.898Z,62.30
2019-04-06T21:41:16.506Z,62.63
2019-04-06T21:46:21.508Z,63.67
2019-04-06T21:51:24.128Z,60.93
2019-04-06T21:56:29.190Z,63.30
2019-04-06T22:01:32.663Z,64.70
2019-04-06T22:06:34.946Z,62.70
2019-04-06T22:11:37.209Z,64.17
2019-04-06T22:16:39.615Z,64.83
2019-04-06T22:21:43.921Z,64.70
2019-04-06T22:26:46.268Z,67.27
2019-04-06T22:31:49.164Z,64.53
2019-04-06T22:36:54.337Z,64.10
2019-04-06T22:42:05.634Z,64.47
2019-04-06T22:47:08.102Z,63.97
2019-04-06T22:52:14.751Z,65.37
2019-04-06T22:57:17.076Z,66.03
2019-04-06T23:02:19.096Z,66.73
2019-04-06T23:07:23.319Z,65.43
2019-04-06T23:12:26.108Z,64.13
2019-04-06T23:17:31.821Z,63.73
2019-04-06T23:22:33.925Z,65.37
2019-04-06T23:27:37.716Z,61.67
2019-04-06T23:32:40.055Z,65.07
2019-04-06T23:37:42.218Z,63.53
2019-04-06T23:42:44.430Z,63.77
2019-04-06T23:47:46.818Z,63.37
2019-04-06T23:52:51.586Z,63.73
2019-04-06T23:57:54.984Z,61.83
